Airfield :
LOGIN :

Register | Disclaimer

   EN    FR    IT 

 










Legend :    VFR   Marginal VFR   IFR   Intensive IFR   Very Intensive IFR
Visi :
Ceiling :
>= 8 km
>= 3000ft
5 to 8 km
1000 to 3000 ft
1500m to 5 km
500 to 1000 ft
800 to 1500m
200 to 500 ft
< 800m
< 200 ft
Symbols :   Thunderstorms  Fog  Heavy snow  Heavy precipitations  Wind > 20 kt
SIGMETs :     Misc.  Thunderstorms  Icing  Turbulence  Mountain Waves  Volcanic Ashes






- Airport Elevation : 65 ft
- IATA code : PIK


EGPK - Glasgow Prestwick

CURRENT METAR :
  • 271250Z 23017KT 9999 FEW022 SCT034CB 14/09 Q1001

EXPIRED METARs :
  • 271220Z 23018KT 9999 SCT023 14/09 Q1000
  • 271150Z AUTO 24016G32KT 9999 SCT023/// 14/09 Q1000
  • 271120Z 24016KT 9999 SCT019 14/10 Q1000
  • 271050Z 25015KT 9999 SCT018 13/10 Q1000
  • 271020Z 25014KT 9999 FEW020 SCT025 12/10 Q0999

TAF TAF EGPK
Valid from the 27 at 12:00 until the 28 at 12:00 UTC


271055Z 2712/2812 24009KT 9999 FEW015 SCT025
TEMPO 2712/2716 6000 SHRA
PROB30
TEMPO 2712/2715 25015G25KT 4000 +SHRA BKN014 BKN020CB
BECMG 2718/2721 18010KT
PROB30
TEMPO 2720/2803 6000 SHRA



MET'MAP, your aeronautical weather chart ! - Copyright ORBIFLY December 2007 - Disclaimer

ORBIFLY MET'MAP TEAM :

Programming & Development : Alexandra Zaïnal
Concept & original design : Baudouin d'Aumeries
Assistance for programming : Marc-Olivier Méhu
Technical & hardware support : Manuel Goepfert

Contact : metmap@orbifly.com




SOURCES & CREDITS :

   NOAA